Main page
METAR-TAF:

METAR-TAF

Airports :

Heathrow Airport

London-Heathrow, England

latitude: 51-29N, longitude: 000-27W, elevation: 24 m

Current weather observation

The report was made 15 minutes ago, at 21:50 UTC
Wind 10 kt from the West
Temperature 14°C
Humidity 77%
Pressure 1018 hPa
Visibility 10 km or more

METAR: EGLL 252150Z AUTO 27010KT 9999 NCD 14/10 Q1018 NOSIG

Time: 23:05 (22:05 UTC)

Forecast

The report was made 5 hours and 7 minutes ago, at 16:58 UTC
Forecast valid from 25 at 18 UTC to 26 at 24 UTC
Wind 11 kt from the West
Visibility 10 km or more
Scattered clouds at a height of 4500 ft
Probability 30% :
Temporary
from 26 at 14 UTC to 26 at 19 UTC
Wind 15 kt from the West with gusts up to 26 kt
Probability 30% :
Temporary
from 26 at 20 UTC to 26 at 24 UTC
Visibility: 9000 m
Broken clouds at a height of 1200 ft
light rain

TAF: EGLL 251658Z 2518/2624 27011KT 9999 SCT045 PROB30 TEMPO 2614/2619 26015G26KT PROB30 TEMPO 2620/2624 9000 -RA BKN012

Weather observations and forecasts of more than 4000 airports (METAR and TAF reports).

The available stations are represented by yellow and red dots on the map.

Hover mouse over dot to see the name of the station.

Then click to see weather observations and forecasts.

To change the map : click on the green buttons with a black cross to zoom in, on the green button with a dash to zoom out, or on the green arrows for adjacent maps.


METAR-TAF: